sensor_id;sensor_type;location;lat;lon;timestamp;temperature;humidity
9271;DHT22;4673;53.458;9.940;2022-08-01T00:02:15;18.10;99.90
9271;DHT22;4673;53.458;9.940;2022-08-01T00:04:40;18.20;99.90
9271;DHT22;4673;53.458;9.940;2022-08-01T00:07:06;18.20;99.90
9271;DHT22;4673;53.458;9.940;2022-08-01T00:09:32;18.20;99.90
9271;DHT22;4673;53.458;9.940;2022-08-01T00:11:57;18.20;99.90
9271;DHT22;4673;53.458;9.940;2022-08-01T00:14:23;18.20;99.90
9271;DHT22;4673;53.458;9.940;2022-08-01T00:16:49;18.20;99.90
9271;DHT22;4673;53.458;9.940;2022-08-01T00:19:14;18.20;99.90
9271;DHT22;4673;53.458;9.940;2022-08-01T00:21:40;18.20;99.90
9271;DHT22;4673;53.458;9.940;2022-08-01T00:24:06;18.20;99.90
9271;DHT22;4673;53.458;9.940;2022-08-01T00:26:31;18.20;99.90
9271;DHT22;4673;53.458;9.940;2022-08-01T00:28:57;18.20;99.90
9271;DHT22;4673;53.458;9.940;2022-08-01T00:31:22;18.20;99.90
9271;DHT22;4673;53.458;9.940;2022-08-01T00:33:48;18.20;99.90
9271;DHT22;4673;53.458;9.940;2022-08-01T00:36:14;18.20;99.90
9271;DHT22;4673;53.458;9.940;2022-08-01T00:38:39;18.20;99.90
9271;DHT22;4673;53.458;9.940;2022-08-01T00:41:05;18.20;99.90
9271;DHT22;4673;53.458;9.940;2022-08-01T00:43:31;18.20;99.90
9271;DHT22;4673;53.458;9.940;2022-08-01T00:45:56;18.20;99.90
9271;DHT22;4673;53.458;9.940;2022-08-01T00:48:22;18.20;99.90
9271;DHT22;4673;53.458;9.940;2022-08-01T00:50:47;18.20;99.90
9271;DHT22;4673;53.458;9.940;2022-08-01T00:53:14;18.20;99.90
9271;DHT22;4673;53.458;9.940;2022-08-01T00:55:39;18.20;99.90
9271;DHT22;4673;53.458;9.940;2022-08-01T00:58:05;18.20;99.90
9271;DHT22;4673;53.458;9.940;2022-08-01T01:00:32;18.20;99.90
9271;DHT22;4673;53.458;9.940;2022-08-01T01:02:58;18.20;99.90
9271;DHT22;4673;53.458;9.940;2022-08-01T01:05:24;18.20;99.90
9271;DHT22;4673;53.458;9.940;2022-08-01T01:08:03;18.20;99.90
9271;DHT22;4673;53.458;9.940;2022-08-01T01:13:04;18.10;99.90
9271;DHT22;4673;53.458;9.940;2022-08-01T01:15:40;18.10;99.90
9271;DHT22;4673;53.458;9.940;2022-08-01T01:18:27;18.10;99.90
9271;DHT22;4673;53.458;9.940;2022-08-01T01:27:04;18.10;99.90
9271;DHT22;4673;53.458;9.940;2022-08-01T01:29:38;18.10;99.90
9271;DHT22;4673;53.458;9.940;2022-08-01T01:32:18;18.10;99.90
9271;DHT22;4673;53.458;9.940;2022-08-01T01:34:48;18.10;99.90
9271;DHT22;4673;53.458;9.940;2022-08-01T01:37:17;18.10;99.90
9271;DHT22;4673;53.458;9.940;2022-08-01T01:39:44;18.00;99.90
9271;DHT22;4673;53.458;9.940;2022-08-01T01:42:12;18.00;99.90
9271;DHT22;4673;53.458;9.940;2022-08-01T01:44:40;18.00;99.90
9271;DHT22;4673;53.458;9.940;2022-08-01T01:47:07;18.00;99.90
9271;DHT22;4673;53.458;9.940;2022-08-01T01:49:33;18.00;99.90
9271;DHT22;4673;53.458;9.940;2022-08-01T01:52:00;18.00;99.90
9271;DHT22;4673;53.458;9.940;2022-08-01T01:54:33;18.00;99.90
9271;DHT22;4673;53.458;9.940;2022-08-01T01:57:02;18.00;99.90
9271;DHT22;4673;53.458;9.940;2022-08-01T01:59:31;18.00;99.90
9271;DHT22;4673;53.458;9.940;2022-08-01T02:02:01;18.00;99.90
9271;DHT22;4673;53.458;9.940;2022-08-01T02:04:28;18.00;99.90
9271;DHT22;4673;53.458;9.940;2022-08-01T02:06:55;18.00;99.90
9271;DHT22;4673;53.458;9.940;2022-08-01T02:09:23;18.00;99.90
9271;DHT22;4673;53.458;9.940;2022-08-01T02:11:49;18.00;99.90
9271;DHT22;4673;53.458;9.940;2022-08-01T02:14:18;17.90;99.90
9271;DHT22;4673;53.458;9.940;2022-08-01T02:16:47;17.90;99.90
9271;DHT22;4673;53.458;9.940;2022-08-01T02:19:13;17.90;99.90
9271;DHT22;4673;53.458;9.940;2022-08-01T02:28:04;17.80;99.90
9271;DHT22;4673;53.458;9.940;2022-08-01T02:30:36;17.80;99.90
9271;DHT22;4673;53.458;9.940;2022-08-01T02:33:19;17.80;99.90
9271;DHT22;4673;53.458;9.940;2022-08-01T02:35:52;17.80;99.90
9271;DHT22;4673;53.458;9.940;2022-08-01T02:38:19;17.80;99.90
9271;DHT22;4673;53.458;9.940;2022-08-01T02:40:48;17.90;99.90
9271;DHT22;4673;53.458;9.940;2022-08-01T02:43:18;17.80;99.90
9271;DHT22;4673;53.458;9.940;2022-08-01T02:45:47;17.80;99.90
9271;DHT22;4673;53.458;9.940;2022-08-01T02:48:15;17.80;99.90
9271;DHT22;4673;53.458;9.940;2022-08-01T02:50:46;17.80;99.90
9271;DHT22;4673;53.458;9.940;2022-08-01T02:53:13;17.80;99.90
9271;DHT22;4673;53.458;9.940;2022-08-01T02:55:40;17.80;99.90
9271;DHT22;4673;53.458;9.940;2022-08-01T02:58:09;17.80;99.90
9271;DHT22;4673;53.458;9.940;2022-08-01T03:00:36;17.80;99.90
9271;DHT22;4673;53.458;9.940;2022-08-01T03:03:03;17.80;99.90
9271;DHT22;4673;53.458;9.940;2022-08-01T03:05:30;17.80;99.90
9271;DHT22;4673;53.458;9.940;2022-08-01T03:07:59;17.70;99.90
9271;DHT22;4673;53.458;9.940;2022-08-01T03:10:27;17.70;99.90
9271;DHT22;4673;53.458;9.940;2022-08-01T03:12:54;17.70;99.90
9271;DHT22;4673;53.458;9.940;2022-08-01T03:15:21;17.70;99.90
9271;DHT22;4673;53.458;9.940;2022-08-01T03:17:49;17.70;99.90
9271;DHT22;4673;53.458;9.940;2022-08-01T03:20:18;17.70;99.90
9271;DHT22;4673;53.458;9.940;2022-08-01T03:22:45;17.70;99.90
9271;DHT22;4673;53.458;9.940;2022-08-01T03:25:13;17.70;99.90
9271;DHT22;4673;53.458;9.940;2022-08-01T03:27:42;17.60;99.90
9271;DHT22;4673;53.458;9.940;2022-08-01T03:30:09;17.70;99.90
9271;DHT22;4673;53.458;9.940;2022-08-01T03:32:36;17.70;99.90
9271;DHT22;4673;53.458;9.940;2022-08-01T03:35:02;17.70;99.90
9271;DHT22;4673;53.458;9.940;2022-08-01T03:37:32;17.70;99.90
9271;DHT22;4673;53.458;9.940;2022-08-01T03:40:39;17.70;99.90
9271;DHT22;4673;53.458;9.940;2022-08-01T03:43:12;17.70;99.90
9271;DHT22;4673;53.458;9.940;2022-08-01T03:45:41;17.70;99.90
9271;DHT22;4673;53.458;9.940;2022-08-01T03:48:16;17.70;99.90
9271;DHT22;4673;53.458;9.940;2022-08-01T03:50:46;17.70;99.90
9271;DHT22;4673;53.458;9.940;2022-08-01T03:53:13;17.70;99.90
9271;DHT22;4673;53.458;9.940;2022-08-01T03:55:41;17.70;99.90
9271;DHT22;4673;53.458;9.940;2022-08-01T03:58:09;17.70;99.90
9271;DHT22;4673;53.458;9.940;2022-08-01T04:00:36;17.70;99.90
9271;DHT22;4673;53.458;9.940;2022-08-01T04:03:05;17.70;99.90
9271;DHT22;4673;53.458;9.940;2022-08-01T04:05:32;17.70;99.90
9271;DHT22;4673;53.458;9.940;2022-08-01T04:07:57;17.80;99.90
9271;DHT22;4673;53.458;9.940;2022-08-01T04:10:25;17.70;99.90
9271;DHT22;4673;53.458;9.940;2022-08-01T04:12:51;17.70;99.90
9271;DHT22;4673;53.458;9.940;2022-08-01T04:15:17;17.80;99.90
9271;DHT22;4673;53.458;9.940;2022-08-01T04:17:43;17.70;99.90
9271;DHT22;4673;53.458;9.940;2022-08-01T04:20:09;17.80;99.90
9271;DHT22;4673;53.458;9.940;2022-08-01T04:22:36;17.80;99.90
9271;DHT22;4673;53.458;9.940;2022-08-01T04:25:06;17.70;99.90
9271;DHT22;4673;53.458;9.940;2022-08-01T04:27:38;17.70;99.90
9271;DHT22;4673;53.458;9.940;2022-08-01T04:30:06;17.70;99.90
9271;DHT22;4673;53.458;9.940;2022-08-01T04:32:37;17.80;99.90
9271;DHT22;4673;53.458;9.940;2022-08-01T04:35:06;17.80;99.90
9271;DHT22;4673;53.458;9.940;2022-08-01T04:37:33;17.80;99.90
9271;DHT22;4673;53.458;9.940;2022-08-01T04:40:03;17.80;99.90
9271;DHT22;4673;53.458;9.940;2022-08-01T04:42:31;17.80;99.90
9271;DHT22;4673;53.458;9.940;2022-08-01T04:44:57;17.80;99.90
9271;DHT22;4673;53.458;9.940;2022-08-01T04:47:24;17.80;99.90
9271;DHT22;4673;53.458;9.940;2022-08-01T04:49:50;17.80;99.90
9271;DHT22;4673;53.458;9.940;2022-08-01T04:52:16;17.80;99.90
9271;DHT22;4673;53.458;9.940;2022-08-01T04:54:43;17.80;99.90
9271;DHT22;4673;53.458;9.940;2022-08-01T04:57:09;17.70;99.90
9271;DHT22;4673;53.458;9.940;2022-08-01T04:59:37;17.60;99.90
9271;DHT22;4673;53.458;9.940;2022-08-01T05:02:15;17.70;99.90
9271;DHT22;4673;53.458;9.940;2022-08-01T05:04:42;17.70;99.90
9271;DHT22;4673;53.458;9.940;2022-08-01T05:07:09;17.80;99.90
9271;DHT22;4673;53.458;9.940;2022-08-01T05:09:36;17.70;99.90
9271;DHT22;4673;53.458;9.940;2022-08-01T05:12:03;17.60;99.90
9271;DHT22;4673;53.458;9.940;2022-08-01T05:14:30;17.50;99.90
9271;DHT22;4673;53.458;9.940;2022-08-01T05:17:00;17.60;99.90
9271;DHT22;4673;53.458;9.940;2022-08-01T05:19:32;17.70;99.90
9271;DHT22;4673;53.458;9.940;2022-08-01T05:21:59;17.70;99.90
9271;DHT22;4673;53.458;9.940;2022-08-01T05:24:28;17.80;99.90
9271;DHT22;4673;53.458;9.940;2022-08-01T05:26:55;17.70;99.90
9271;DHT22;4673;53.458;9.940;2022-08-01T05:29:21;17.70;99.90
9271;DHT22;4673;53.458;9.940;2022-08-01T05:31:47;17.50;99.90
9271;DHT22;4673;53.458;9.940;2022-08-01T05:34:13;17.60;99.90
9271;DHT22;4673;53.458;9.940;2022-08-01T05:36:38;17.60;99.90
9271;DHT22;4673;53.458;9.940;2022-08-01T05:39:04;17.60;99.90
9271;DHT22;4673;53.458;9.940;2022-08-01T05:41:30;17.70;99.90
9271;DHT22;4673;53.458;9.940;2022-08-01T05:43:56;17.70;99.90
9271;DHT22;4673;53.458;9.940;2022-08-01T05:46:21;17.70;99.90
9271;DHT22;4673;53.458;9.940;2022-08-01T05:48:47;17.80;99.90
9271;DHT22;4673;53.458;9.940;2022-08-01T05:51:13;17.70;99.90
9271;DHT22;4673;53.458;9.940;2022-08-01T05:53:38;17.70;99.90
9271;DHT22;4673;53.458;9.940;2022-08-01T05:56:04;17.80;99.90
9271;DHT22;4673;53.458;9.940;2022-08-01T05:58:30;17.90;99.90
9271;DHT22;4673;53.458;9.940;2022-08-01T06:00:57;17.80;99.90
9271;DHT22;4673;53.458;9.940;2022-08-01T06:03:23;17.80;99.90
9271;DHT22;4673;53.458;9.940;2022-08-01T06:05:48;17.90;99.90
9271;DHT22;4673;53.458;9.940;2022-08-01T06:08:14;17.80;99.90
9271;DHT22;4673;53.458;9.940;2022-08-01T06:10:40;17.80;99.90
9271;DHT22;4673;53.458;9.940;2022-08-01T06:13:05;17.80;99.90
9271;DHT22;4673;53.458;9.940;2022-08-01T06:15:32;17.90;99.90
9271;DHT22;4673;53.458;9.940;2022-08-01T06:17:57;17.90;99.90
9271;DHT22;4673;53.458;9.940;2022-08-01T06:20:23;17.90;99.90
9271;DHT22;4673;53.458;9.940;2022-08-01T06:22:49;17.90;99.90
9271;DHT22;4673;53.458;9.940;2022-08-01T06:25:17;17.80;99.90
9271;DHT22;4673;53.458;9.940;2022-08-01T06:27:43;17.80;99.90
9271;DHT22;4673;53.458;9.940;2022-08-01T06:30:09;17.90;99.90
9271;DHT22;4673;53.458;9.940;2022-08-01T06:32:35;18.10;99.90
9271;DHT22;4673;53.458;9.940;2022-08-01T06:35:00;18.30;99.90
9271;DHT22;4673;53.458;9.940;2022-08-01T06:37:33;18.20;99.90
9271;DHT22;4673;53.458;9.940;2022-08-01T06:40:07;18.10;99.90
9271;DHT22;4673;53.458;9.940;2022-08-01T06:42:34;18.10;99.80
9271;DHT22;4673;53.458;9.940;2022-08-01T06:45:08;18.20;99.70
9271;DHT22;4673;53.458;9.940;2022-08-01T06:47:33;18.20;99.20
9271;DHT22;4673;53.458;9.940;2022-08-01T06:49:59;18.30;99.40
9271;DHT22;4673;53.458;9.940;2022-08-01T06:52:25;18.30;97.60
9271;DHT22;4673;53.458;9.940;2022-08-01T06:54:51;18.10;97.30
9271;DHT22;4673;53.458;9.940;2022-08-01T06:57:17;18.10;97.40
9271;DHT22;4673;53.458;9.940;2022-08-01T06:59:43;18.10;97.50
9271;DHT22;4673;53.458;9.940;2022-08-01T07:02:09;18.00;97.50
9271;DHT22;4673;53.458;9.940;2022-08-01T07:04:34;18.10;97.30
9271;DHT22;4673;53.458;9.940;2022-08-01T07:07:00;18.10;97.40
9271;DHT22;4673;53.458;9.940;2022-08-01T07:09:26;18.30;98.00
9271;DHT22;4673;53.458;9.940;2022-08-01T07:11:52;18.50;97.80
9271;DHT22;4673;53.458;9.940;2022-08-01T07:14:20;18.50;96.50
9271;DHT22;4673;53.458;9.940;2022-08-01T07:16:46;18.40;95.50
9271;DHT22;4673;53.458;9.940;2022-08-01T07:19:11;18.40;95.70
9271;DHT22;4673;53.458;9.940;2022-08-01T07:21:38;18.30;95.60
9271;DHT22;4673;53.458;9.940;2022-08-01T07:24:04;18.30;95.80
9271;DHT22;4673;53.458;9.940;2022-08-01T07:26:30;18.20;95.60
9271;DHT22;4673;53.458;9.940;2022-08-01T07:28:56;18.10;95.00
9271;DHT22;4673;53.458;9.940;2022-08-01T07:31:22;17.80;94.50
9271;DHT22;4673;53.458;9.940;2022-08-01T07:33:48;17.90;96.20
9271;DHT22;4673;53.458;9.940;2022-08-01T07:36:14;18.10;96.20
9271;DHT22;4673;53.458;9.940;2022-08-01T07:38:40;18.00;95.40
9271;DHT22;4673;53.458;9.940;2022-08-01T07:41:06;18.00;95.10
9271;DHT22;4673;53.458;9.940;2022-08-01T07:43:31;18.20;95.00
9271;DHT22;4673;53.458;9.940;2022-08-01T07:45:57;18.30;94.40
9271;DHT22;4673;53.458;9.940;2022-08-01T07:48:22;18.30;93.80
9271;DHT22;4673;53.458;9.940;2022-08-01T07:50:50;18.40;92.70
9271;DHT22;4673;53.458;9.940;2022-08-01T07:53:16;18.50;92.90
9271;DHT22;4673;53.458;9.940;2022-08-01T07:55:42;18.80;92.00
9271;DHT22;4673;53.458;9.940;2022-08-01T07:58:08;19.10;92.20
9271;DHT22;4673;53.458;9.940;2022-08-01T08:00:33;19.50;90.50
9271;DHT22;4673;53.458;9.940;2022-08-01T08:02:59;19.40;87.20
9271;DHT22;4673;53.458;9.940;2022-08-01T08:05:26;19.30;86.80
9271;DHT22;4673;53.458;9.940;2022-08-01T08:07:51;19.30;87.20
9271;DHT22;4673;53.458;9.940;2022-08-01T08:10:17;19.20;85.90
9271;DHT22;4673;53.458;9.940;2022-08-01T08:12:43;19.00;86.30
9271;DHT22;4673;53.458;9.940;2022-08-01T08:15:09;19.10;87.90
9271;DHT22;4673;53.458;9.940;2022-08-01T08:17:34;19.10;87.40
9271;DHT22;4673;53.458;9.940;2022-08-01T08:20:02;19.20;86.80
9271;DHT22;4673;53.458;9.940;2022-08-01T08:22:28;19.30;86.50
9271;DHT22;4673;53.458;9.940;2022-08-01T08:24:53;19.40;86.60
9271;DHT22;4673;53.458;9.940;2022-08-01T08:27:19;19.50;85.50
9271;DHT22;4673;53.458;9.940;2022-08-01T08:29:45;19.50;81.30
9271;DHT22;4673;53.458;9.940;2022-08-01T08:32:10;19.60;82.60
9271;DHT22;4673;53.458;9.940;2022-08-01T08:34:36;19.80;80.70
9271;DHT22;4673;53.458;9.940;2022-08-01T08:37:02;19.90;78.70
9271;DHT22;4673;53.458;9.940;2022-08-01T08:39:27;20.00;77.60
9271;DHT22;4673;53.458;9.940;2022-08-01T08:41:59;20.10;76.60
9271;DHT22;4673;53.458;9.940;2022-08-01T08:44:25;20.20;75.30
9271;DHT22;4673;53.458;9.940;2022-08-01T08:46:51;20.10;73.40
9271;DHT22;4673;53.458;9.940;2022-08-01T08:49:23;20.10;72.10
9271;DHT22;4673;53.458;9.940;2022-08-01T08:51:50;19.90;70.20
9271;DHT22;4673;53.458;9.940;2022-08-01T08:54:18;19.70;73.90
9271;DHT22;4673;53.458;9.940;2022-08-01T08:56:46;19.70;74.40
9271;DHT22;4673;53.458;9.940;2022-08-01T08:59:12;19.50;74.40
9271;DHT22;4673;53.458;9.940;2022-08-01T09:01:39;19.50;76.50
9271;DHT22;4673;53.458;9.940;2022-08-01T09:04:05;19.80;77.40
9271;DHT22;4673;53.458;9.940;2022-08-01T09:06:32;20.00;77.40
9271;DHT22;4673;53.458;9.940;2022-08-01T09:08:58;20.30;76.40
9271;DHT22;4673;53.458;9.940;2022-08-01T09:11:24;20.30;75.40
9271;DHT22;4673;53.458;9.940;2022-08-01T09:14:16;20.40;75.00
9271;DHT22;4673;53.458;9.940;2022-08-01T09:17:07;20.00;72.00
9271;DHT22;4673;53.458;9.940;2022-08-01T09:19:45;19.90;75.00
9271;DHT22;4673;53.458;9.940;2022-08-01T09:22:15;20.00;73.40
9271;DHT22;4673;53.458;9.940;2022-08-01T09:25:00;20.30;73.70
9271;DHT22;4673;53.458;9.940;2022-08-01T09:27:26;20.40;73.50
9271;DHT22;4673;53.458;9.940;2022-08-01T09:29:52;20.40;72.30
9271;DHT22;4673;53.458;9.940;2022-08-01T09:32:20;20.20;73.40
9271;DHT22;4673;53.458;9.940;2022-08-01T09:34:45;20.10;73.70
9271;DHT22;4673;53.458;9.940;2022-08-01T09:37:12;20.30;74.80
9271;DHT22;4673;53.458;9.940;2022-08-01T09:39:39;20.30;72.10
9271;DHT22;4673;53.458;9.940;2022-08-01T09:42:27;20.20;73.30
9271;DHT22;4673;53.458;9.940;2022-08-01T09:44:53;20.10;72.10
9271;DHT22;4673;53.458;9.940;2022-08-01T09:47:19;20.20;74.30
9271;DHT22;4673;53.458;9.940;2022-08-01T09:49:56;20.30;73.00
9271;DHT22;4673;53.458;9.940;2022-08-01T09:52:24;20.30;72.70
9271;DHT22;4673;53.458;9.940;2022-08-01T09:55:01;20.10;71.30
9271;DHT22;4673;53.458;9.940;2022-08-01T09:57:28;20.20;72.50
9271;DHT22;4673;53.458;9.940;2022-08-01T09:59:56;19.80;71.30
9271;DHT22;4673;53.458;9.940;2022-08-01T10:02:33;19.80;74.00
9271;DHT22;4673;53.458;9.940;2022-08-01T10:05:01;20.10;73.10
9271;DHT22;4673;53.458;9.940;2022-08-01T10:07:27;20.30;71.80
9271;DHT22;4673;53.458;9.940;2022-08-01T10:09:52;20.40;70.10
9271;DHT22;4673;53.458;9.940;2022-08-01T10:12:21;20.40;70.20
9271;DHT22;4673;53.458;9.940;2022-08-01T10:14:48;20.40;70.30
9271;DHT22;4673;53.458;9.940;2022-08-01T10:17:24;20.00;68.60
9271;DHT22;4673;53.458;9.940;2022-08-01T10:19:50;19.80;68.60
9271;DHT22;4673;53.458;9.940;2022-08-01T10:22:16;20.00;69.20
9271;DHT22;4673;53.458;9.940;2022-08-01T10:24:46;20.20;70.70
9271;DHT22;4673;53.458;9.940;2022-08-01T10:27:15;20.50;70.70
9271;DHT22;4673;53.458;9.940;2022-08-01T10:29:58;20.60;68.30
9271;DHT22;4673;53.458;9.940;2022-08-01T10:32:29;20.50;66.80
9271;DHT22;4673;53.458;9.940;2022-08-01T10:34:55;20.30;68.10
9271;DHT22;4673;53.458;9.940;2022-08-01T10:37:22;20.40;67.80
9271;DHT22;4673;53.458;9.940;2022-08-01T10:39:50;20.50;68.90
9271;DHT22;4673;53.458;9.940;2022-08-01T10:42:18;20.60;67.50
9271;DHT22;4673;53.458;9.940;2022-08-01T10:44:44;20.90;67.80
9271;DHT22;4673;53.458;9.940;2022-08-01T10:47:14;20.90;63.70
9271;DHT22;4673;53.458;9.940;2022-08-01T10:49:48;20.80;61.70
9271;DHT22;4673;53.458;9.940;2022-08-01T10:52:17;20.50;62.60
9271;DHT22;4673;53.458;9.940;2022-08-01T10:54:44;20.50;65.00
9271;DHT22;4673;53.458;9.940;2022-08-01T10:57:10;20.70;62.40
9271;DHT22;4673;53.458;9.940;2022-08-01T10:59:50;20.60;61.40
9271;DHT22;4673;53.458;9.940;2022-08-01T11:02:28;20.70;60.80
9271;DHT22;4673;53.458;9.940;2022-08-01T11:05:03;20.80;61.70
9271;DHT22;4673;53.458;9.940;2022-08-01T11:07:43;20.90;63.10
9271;DHT22;4673;53.458;9.940;2022-08-01T11:12:42;20.60;62.60
9271;DHT22;4673;53.458;9.940;2022-08-01T11:17:44;20.60;63.20
9271;DHT22;4673;53.458;9.940;2022-08-01T11:20:33;20.80;63.20
9271;DHT22;4673;53.458;9.940;2022-08-01T11:38:42;20.80;57.30
9271;DHT22;4673;53.458;9.940;2022-08-01T11:41:28;20.80;58.30
9271;DHT22;4673;53.458;9.940;2022-08-01T11:54:39;21.20;56.50
9271;DHT22;4673;53.458;9.940;2022-08-01T11:57:19;21.40;57.50
9271;DHT22;4673;53.458;9.940;2022-08-01T11:59:51;21.20;53.50
9271;DHT22;4673;53.458;9.940;2022-08-01T12:02:25;21.00;54.30
9271;DHT22;4673;53.458;9.940;2022-08-01T12:04:59;21.10;56.80
9271;DHT22;4673;53.458;9.940;2022-08-01T12:07:28;21.30;56.60
9271;DHT22;4673;53.458;9.940;2022-08-01T12:10:05;21.30;55.30
9271;DHT22;4673;53.458;9.940;2022-08-01T12:12:32;21.40;56.60
9271;DHT22;4673;53.458;9.940;2022-08-01T12:15:01;21.20;55.70
9271;DHT22;4673;53.458;9.940;2022-08-01T12:17:48;21.10;54.40
9271;DHT22;4673;53.458;9.940;2022-08-01T12:20:19;21.00;55.30
9271;DHT22;4673;53.458;9.940;2022-08-01T12:22:47;21.00;55.10
9271;DHT22;4673;53.458;9.940;2022-08-01T12:25:14;21.00;53.10
9271;DHT22;4673;53.458;9.940;2022-08-01T12:27:42;20.90;55.00
9271;DHT22;4673;53.458;9.940;2022-08-01T12:30:13;21.00;54.30
9271;DHT22;4673;53.458;9.940;2022-08-01T12:32:40;21.10;53.50
9271;DHT22;4673;53.458;9.940;2022-08-01T12:35:15;21.20;50.40
9271;DHT22;4673;53.458;9.940;2022-08-01T12:37:46;21.20;51.60
9271;DHT22;4673;53.458;9.940;2022-08-01T12:40:15;21.00;52.10
9271;DHT22;4673;53.458;9.940;2022-08-01T12:42:42;20.80;53.10
9271;DHT22;4673;53.458;9.940;2022-08-01T12:45:11;20.80;52.00
9271;DHT22;4673;53.458;9.940;2022-08-01T12:47:38;20.80;52.40
9271;DHT22;4673;53.458;9.940;2022-08-01T12:50:16;20.60;51.50
9271;DHT22;4673;53.458;9.940;2022-08-01T12:52:42;20.30;52.00
9271;DHT22;4673;53.458;9.940;2022-08-01T12:55:12;20.50;54.80
9271;DHT22;4673;53.458;9.940;2022-08-01T12:57:41;20.60;54.60
9271;DHT22;4673;53.458;9.940;2022-08-01T13:00:19;20.60;53.40
9271;DHT22;4673;53.458;9.940;2022-08-01T13:02:47;20.60;52.90
9271;DHT22;4673;53.458;9.940;2022-08-01T13:05:13;20.60;52.90
9271;DHT22;4673;53.458;9.940;2022-08-01T13:07:47;20.60;52.40
9271;DHT22;4673;53.458;9.940;2022-08-01T13:10:14;20.70;52.40
9271;DHT22;4673;53.458;9.940;2022-08-01T13:12:51;20.70;52.40
9271;DHT22;4673;53.458;9.940;2022-08-01T13:15:25;20.80;51.50
9271;DHT22;4673;53.458;9.940;2022-08-01T13:17:52;20.70;51.40
9271;DHT22;4673;53.458;9.940;2022-08-01T13:20:23;20.70;50.00
9271;DHT22;4673;53.458;9.940;2022-08-01T13:22:49;20.70;50.50
9271;DHT22;4673;53.458;9.940;2022-08-01T13:25:16;20.80;51.40
9271;DHT22;4673;53.458;9.940;2022-08-01T13:27:42;20.90;49.60
9271;DHT22;4673;53.458;9.940;2022-08-01T13:30:17;20.70;50.60
9271;DHT22;4673;53.458;9.940;2022-08-01T13:32:44;20.60;50.00
9271;DHT22;4673;53.458;9.940;2022-08-01T13:35:22;20.60;50.10
9271;DHT22;4673;53.458;9.940;2022-08-01T13:37:47;20.60;51.00
9271;DHT22;4673;53.458;9.940;2022-08-01T13:40:24;20.50;50.20
9271;DHT22;4673;53.458;9.940;2022-08-01T13:42:49;20.00;50.20
9271;DHT22;4673;53.458;9.940;2022-08-01T13:45:15;20.10;51.50
9271;DHT22;4673;53.458;9.940;2022-08-01T13:47:42;20.10;51.00
9271;DHT22;4673;53.458;9.940;2022-08-01T13:50:08;20.40;49.50
9271;DHT22;4673;53.458;9.940;2022-08-01T13:52:34;20.60;49.10
9271;DHT22;4673;53.458;9.940;2022-08-01T13:55:00;20.50;48.90
9271;DHT22;4673;53.458;9.940;2022-08-01T13:57:27;20.60;48.60
9271;DHT22;4673;53.458;9.940;2022-08-01T14:00:06;20.40;48.10
9271;DHT22;4673;53.458;9.940;2022-08-01T14:02:39;20.40;48.60
9271;DHT22;4673;53.458;9.940;2022-08-01T14:05:06;20.50;47.80
9271;DHT22;4673;53.458;9.940;2022-08-01T14:07:32;20.40;47.70
9271;DHT22;4673;53.458;9.940;2022-08-01T14:09:57;20.40;48.20
9271;DHT22;4673;53.458;9.940;2022-08-01T14:12:23;20.30;48.70
9271;DHT22;4673;53.458;9.940;2022-08-01T14:14:48;20.20;49.80
9271;DHT22;4673;53.458;9.940;2022-08-01T14:17:14;20.40;50.80
9271;DHT22;4673;53.458;9.940;2022-08-01T14:19:40;20.40;49.60
9271;DHT22;4673;53.458;9.940;2022-08-01T14:22:05;20.40;48.20
9271;DHT22;4673;53.458;9.940;2022-08-01T14:24:31;20.30;49.00
9271;DHT22;4673;53.458;9.940;2022-08-01T14:26:56;20.20;48.90
9271;DHT22;4673;53.458;9.940;2022-08-01T14:29:22;20.20;49.50
9271;DHT22;4673;53.458;9.940;2022-08-01T14:31:47;20.10;49.70
9271;DHT22;4673;53.458;9.940;2022-08-01T14:34:13;20.30;50.00
9271;DHT22;4673;53.458;9.940;2022-08-01T14:36:39;20.50;48.80
9271;DHT22;4673;53.458;9.940;2022-08-01T14:39:05;20.50;47.30
9271;DHT22;4673;53.458;9.940;2022-08-01T14:41:30;20.50;47.60
9271;DHT22;4673;53.458;9.940;2022-08-01T14:43:56;20.50;47.50
9271;DHT22;4673;53.458;9.940;2022-08-01T14:46:21;20.30;45.70
9271;DHT22;4673;53.458;9.940;2022-08-01T14:48:47;20.30;47.50
9271;DHT22;4673;53.458;9.940;2022-08-01T14:51:13;20.60;47.80
9271;DHT22;4673;53.458;9.940;2022-08-01T14:53:38;20.60;46.40
9271;DHT22;4673;53.458;9.940;2022-08-01T14:56:05;20.50;47.60
9271;DHT22;4673;53.458;9.940;2022-08-01T14:58:31;20.60;46.90
9271;DHT22;4673;53.458;9.940;2022-08-01T15:00:56;20.50;47.20
9271;DHT22;4673;53.458;9.940;2022-08-01T15:03:22;20.40;47.50
9271;DHT22;4673;53.458;9.940;2022-08-01T15:05:48;20.40;48.10
9271;DHT22;4673;53.458;9.940;2022-08-01T15:08:13;20.40;47.10
9271;DHT22;4673;53.458;9.940;2022-08-01T15:10:39;20.40;47.20
9271;DHT22;4673;53.458;9.940;2022-08-01T15:13:05;20.20;47.80
9271;DHT22;4673;53.458;9.940;2022-08-01T15:15:30;20.30;47.10
9271;DHT22;4673;53.458;9.940;2022-08-01T15:17:56;19.80;45.80
9271;DHT22;4673;53.458;9.940;2022-08-01T15:20:22;19.80;48.10
9271;DHT22;4673;53.458;9.940;2022-08-01T15:22:47;19.90;48.60
9271;DHT22;4673;53.458;9.940;2022-08-01T15:25:13;19.80;47.20
9271;DHT22;4673;53.458;9.940;2022-08-01T15:27:39;19.70;46.70
9271;DHT22;4673;53.458;9.940;2022-08-01T15:30:05;19.40;47.50
9271;DHT22;4673;53.458;9.940;2022-08-01T15:32:31;19.30;48.50
9271;DHT22;4673;53.458;9.940;2022-08-01T15:34:57;19.30;49.20
9271;DHT22;4673;53.458;9.940;2022-08-01T15:37:23;19.30;48.30
9271;DHT22;4673;53.458;9.940;2022-08-01T15:39:48;19.40;47.70
9271;DHT22;4673;53.458;9.940;2022-08-01T15:42:16;19.40;47.40
9271;DHT22;4673;53.458;9.940;2022-08-01T15:44:42;19.50;47.70
9271;DHT22;4673;53.458;9.940;2022-08-01T15:47:09;19.60;47.40
9271;DHT22;4673;53.458;9.940;2022-08-01T15:49:36;19.50;45.50
9271;DHT22;4673;53.458;9.940;2022-08-01T15:52:06;19.50;47.30
9271;DHT22;4673;53.458;9.940;2022-08-01T15:54:32;19.50;48.40
9271;DHT22;4673;53.458;9.940;2022-08-01T15:56:58;19.50;47.50
9271;DHT22;4673;53.458;9.940;2022-08-01T15:59:24;19.60;48.80
9271;DHT22;4673;53.458;9.940;2022-08-01T16:01:50;19.60;48.10
9271;DHT22;4673;53.458;9.940;2022-08-01T16:04:16;19.50;48.60
9271;DHT22;4673;53.458;9.940;2022-08-01T16:06:42;19.60;49.20
9271;DHT22;4673;53.458;9.940;2022-08-01T16:09:08;19.70;49.60
9271;DHT22;4673;53.458;9.940;2022-08-01T16:11:34;19.80;49.00
9271;DHT22;4673;53.458;9.940;2022-08-01T16:14:00;19.70;47.50
9271;DHT22;4673;53.458;9.940;2022-08-01T16:16:26;19.50;47.90
9271;DHT22;4673;53.458;9.940;2022-08-01T16:18:52;19.40;48.50
9271;DHT22;4673;53.458;9.940;2022-08-01T16:21:17;19.30;49.00
9271;DHT22;4673;53.458;9.940;2022-08-01T16:23:44;19.30;49.80
9271;DHT22;4673;53.458;9.940;2022-08-01T16:26:10;19.20;50.00
9271;DHT22;4673;53.458;9.940;2022-08-01T16:28:36;19.20;50.60
9271;DHT22;4673;53.458;9.940;2022-08-01T16:31:02;19.20;49.80
9271;DHT22;4673;53.458;9.940;2022-08-01T16:33:28;19.20;50.20
9271;DHT22;4673;53.458;9.940;2022-08-01T16:35:54;19.20;50.50
9271;DHT22;4673;53.458;9.940;2022-08-01T16:38:20;19.30;50.80
9271;DHT22;4673;53.458;9.940;2022-08-01T16:40:49;19.30;50.40
9271;DHT22;4673;53.458;9.940;2022-08-01T16:43:16;19.30;51.00
9271;DHT22;4673;53.458;9.940;2022-08-01T16:45:42;19.30;51.00
9271;DHT22;4673;53.458;9.940;2022-08-01T16:48:09;19.30;51.80
9271;DHT22;4673;53.458;9.940;2022-08-01T16:50:35;19.30;51.40
9271;DHT22;4673;53.458;9.940;2022-08-01T16:53:01;19.20;51.10
9271;DHT22;4673;53.458;9.940;2022-08-01T16:55:26;19.20;51.80